sensor_id;sensor_type;location;lat;lon;timestamp;pressure;altitude;pressure_sealevel;temperature;humidity
74881;BME280;63427;49.654;6.596;2022-10-31T00:02:18;100198.36;;;12.87;44.68
74881;BME280;63427;49.654;6.596;2022-10-31T00:04:43;100200.06;;;12.83;44.74
74881;BME280;63427;49.654;6.596;2022-10-31T00:07:09;100196.66;;;12.79;44.70
74881;BME280;63427;49.654;6.596;2022-10-31T00:09:34;100198.09;;;12.88;44.66
74881;BME280;63427;49.654;6.596;2022-10-31T00:12:00;100200.94;;;12.97;44.82
74881;BME280;63427;49.654;6.596;2022-10-31T00:14:25;100197.31;;;12.72;44.65
74881;BME280;63427;49.654;6.596;2022-10-31T00:16:51;100194.00;;;12.96;45.23
74881;BME280;63427;49.654;6.596;2022-10-31T00:19:17;100188.86;;;12.96;44.28
74881;BME280;63427;49.654;6.596;2022-10-31T00:21:42;100190.93;;;12.69;44.50
74881;BME280;63427;49.654;6.596;2022-10-31T00:24:07;100191.39;;;12.84;44.90
74881;BME280;63427;49.654;6.596;2022-10-31T00:26:33;100190.36;;;12.69;45.03
74881;BME280;63427;49.654;6.596;2022-10-31T00:28:59;100188.57;;;12.72;44.87
74881;BME280;63427;49.654;6.596;2022-10-31T00:31:24;100181.08;;;12.69;44.86
74881;BME280;63427;49.654;6.596;2022-10-31T00:33:49;100180.71;;;12.66;44.90
74881;BME280;63427;49.654;6.596;2022-10-31T00:36:16;100178.21;;;12.58;44.90
74881;BME280;63427;49.654;6.596;2022-10-31T00:38:40;100180.38;;;12.68;44.64
74881;BME280;63427;49.654;6.596;2022-10-31T00:41:05;100181.14;;;12.56;45.06
74881;BME280;63427;49.654;6.596;2022-10-31T00:43:31;100179.60;;;12.88;45.01
74881;BME280;63427;49.654;6.596;2022-10-31T00:45:56;100178.89;;;12.63;44.97
74881;BME280;63427;49.654;6.596;2022-10-31T00:48:22;100178.55;;;12.67;45.05
74881;BME280;63427;49.654;6.596;2022-10-31T00:50:47;100178.36;;;12.63;45.09
74881;BME280;63427;49.654;6.596;2022-10-31T00:53:13;100178.83;;;12.64;44.99
74881;BME280;63427;49.654;6.596;2022-10-31T00:55:39;100175.87;;;12.66;44.78
74881;BME280;63427;49.654;6.596;2022-10-31T00:58:04;100170.58;;;12.69;44.91
74881;BME280;63427;49.654;6.596;2022-10-31T01:00:30;100170.08;;;12.65;45.08
74881;BME280;63427;49.654;6.596;2022-10-31T01:02:55;100169.48;;;12.60;45.25
74881;BME280;63427;49.654;6.596;2022-10-31T01:05:21;100165.57;;;12.63;45.44
74881;BME280;63427;49.654;6.596;2022-10-31T01:07:46;100161.28;;;12.68;45.21
74881;BME280;63427;49.654;6.596;2022-10-31T01:10:12;100159.17;;;12.74;45.14
74881;BME280;63427;49.654;6.596;2022-10-31T01:12:37;100160.70;;;12.72;45.34
74881;BME280;63427;49.654;6.596;2022-10-31T01:15:04;100168.05;;;12.73;45.27
74881;BME280;63427;49.654;6.596;2022-10-31T01:17:28;100175.10;;;12.83;45.03
74881;BME280;63427;49.654;6.596;2022-10-31T01:19:54;100173.55;;;12.75;45.62
74881;BME280;63427;49.654;6.596;2022-10-31T01:22:19;100176.83;;;12.75;45.50
74881;BME280;63427;49.654;6.596;2022-10-31T01:24:44;100182.25;;;12.83;45.56
74881;BME280;63427;49.654;6.596;2022-10-31T01:27:09;100182.00;;;12.69;45.65
74881;BME280;63427;49.654;6.596;2022-10-31T01:29:35;100176.09;;;12.85;45.80
74881;BME280;63427;49.654;6.596;2022-10-31T01:32:01;100175.38;;;13.19;45.63
74881;BME280;63427;49.654;6.596;2022-10-31T01:34:26;100173.68;;;12.97;45.66
74881;BME280;63427;49.654;6.596;2022-10-31T01:36:51;100169.21;;;13.04;45.16
74881;BME280;63427;49.654;6.596;2022-10-31T01:39:17;100172.84;;;12.99;45.31
74881;BME280;63427;49.654;6.596;2022-10-31T01:41:44;100175.61;;;13.12;45.33
74881;BME280;63427;49.654;6.596;2022-10-31T01:46:36;100171.70;;;13.17;45.18
74881;BME280;63427;49.654;6.596;2022-10-31T01:49:00;100164.44;;;13.22;45.09
74881;BME280;63427;49.654;6.596;2022-10-31T01:51:30;100169.89;;;13.27;44.93
74881;BME280;63427;49.654;6.596;2022-10-31T01:53:51;100162.63;;;13.31;45.04
74881;BME280;63427;49.654;6.596;2022-10-31T01:56:16;100158.47;;;13.29;45.33
74881;BME280;63427;49.654;6.596;2022-10-31T01:58:41;100152.53;;;13.36;45.00
74881;BME280;63427;49.654;6.596;2022-10-31T02:01:06;100149.07;;;13.35;44.83
74881;BME280;63427;49.654;6.596;2022-10-31T02:03:32;100147.66;;;13.26;45.24
74881;BME280;63427;49.654;6.596;2022-10-31T02:05:57;100148.11;;;13.15;46.44
74881;BME280;63427;49.654;6.596;2022-10-31T02:08:27;100146.71;;;12.84;46.24
74881;BME280;63427;49.654;6.596;2022-10-31T02:10:48;100147.96;;;13.14;45.65
74881;BME280;63427;49.654;6.596;2022-10-31T02:13:13;100143.67;;;13.22;45.30
74881;BME280;63427;49.654;6.596;2022-10-31T02:15:40;100145.58;;;13.26;45.27
74881;BME280;63427;49.654;6.596;2022-10-31T02:18:05;100148.19;;;13.30;44.65
74881;BME280;63427;49.654;6.596;2022-10-31T02:20:33;100147.00;;;13.36;44.50
74881;BME280;63427;49.654;6.596;2022-10-31T02:23:08;100145.68;;;13.33;44.81
74881;BME280;63427;49.654;6.596;2022-10-31T02:25:33;100139.50;;;13.34;44.75
74881;BME280;63427;49.654;6.596;2022-10-31T02:28:02;100138.19;;;13.35;44.75
74881;BME280;63427;49.654;6.596;2022-10-31T02:30:15;100137.47;;;13.50;44.37
74881;BME280;63427;49.654;6.596;2022-10-31T02:32:50;100135.74;;;13.52;44.06
74881;BME280;63427;49.654;6.596;2022-10-31T02:35:10;100133.05;;;13.44;44.99
74881;BME280;63427;49.654;6.596;2022-10-31T02:37:34;100130.38;;;13.24;44.62
74881;BME280;63427;49.654;6.596;2022-10-31T02:40:02;100126.87;;;13.18;44.41
74881;BME280;63427;49.654;6.596;2022-10-31T02:42:25;100125.33;;;13.49;44.60
74881;BME280;63427;49.654;6.596;2022-10-31T02:44:50;100123.99;;;13.48;44.50
74881;BME280;63427;49.654;6.596;2022-10-31T02:47:14;100117.52;;;13.43;44.55
74881;BME280;63427;49.654;6.596;2022-10-31T02:49:40;100113.53;;;13.15;44.70
74881;BME280;63427;49.654;6.596;2022-10-31T02:52:02;100111.71;;;13.42;44.39
74881;BME280;63427;49.654;6.596;2022-10-31T02:54:28;100109.86;;;13.19;44.51
74881;BME280;63427;49.654;6.596;2022-10-31T02:56:58;100107.95;;;13.35;44.54
74881;BME280;63427;49.654;6.596;2022-10-31T02:59:19;100107.51;;;13.37;44.50
74881;BME280;63427;49.654;6.596;2022-10-31T03:01:53;100109.86;;;13.43;44.50
74881;BME280;63427;49.654;6.596;2022-10-31T03:04:25;100106.77;;;13.36;44.47
74881;BME280;63427;49.654;6.596;2022-10-31T03:06:40;100103.32;;;13.34;44.60
74881;BME280;63427;49.654;6.596;2022-10-31T03:09:05;100103.02;;;13.34;44.59
74881;BME280;63427;49.654;6.596;2022-10-31T03:11:31;100106.16;;;13.17;44.97
74881;BME280;63427;49.654;6.596;2022-10-31T03:13:55;100105.77;;;13.27;44.84
74881;BME280;63427;49.654;6.596;2022-10-31T03:16:20;100099.20;;;13.30;44.15
74881;BME280;63427;49.654;6.596;2022-10-31T03:18:46;100096.60;;;12.99;44.06
74881;BME280;63427;49.654;6.596;2022-10-31T03:21:10;100100.93;;;13.25;43.69
74881;BME280;63427;49.654;6.596;2022-10-31T03:23:34;100102.80;;;13.31;44.00
74881;BME280;63427;49.654;6.596;2022-10-31T03:26:01;100101.10;;;13.28;44.44
74881;BME280;63427;49.654;6.596;2022-10-31T03:28:26;100100.23;;;13.02;44.63
74881;BME280;63427;49.654;6.596;2022-10-31T03:30:49;100105.24;;;13.24;44.60
74881;BME280;63427;49.654;6.596;2022-10-31T03:33:17;100104.46;;;13.17;44.70
74881;BME280;63427;49.654;6.596;2022-10-31T03:35:42;100100.90;;;13.11;44.81
74881;BME280;63427;49.654;6.596;2022-10-31T03:38:05;100099.81;;;13.23;44.59
74881;BME280;63427;49.654;6.596;2022-10-31T03:40:31;100100.16;;;13.24;44.43
74881;BME280;63427;49.654;6.596;2022-10-31T03:42:59;100102.39;;;13.22;44.30
74881;BME280;63427;49.654;6.596;2022-10-31T03:45:24;100102.13;;;12.97;44.19
74881;BME280;63427;49.654;6.596;2022-10-31T03:47:47;100100.36;;;13.12;44.38
74881;BME280;63427;49.654;6.596;2022-10-31T03:50:14;100100.21;;;12.92;44.03
74881;BME280;63427;49.654;6.596;2022-10-31T03:52:42;100102.14;;;13.09;44.32
74881;BME280;63427;49.654;6.596;2022-10-31T03:55:07;100102.75;;;13.05;44.22
74881;BME280;63427;49.654;6.596;2022-10-31T03:57:32;100100.24;;;13.07;44.04
74881;BME280;63427;49.654;6.596;2022-10-31T03:59:58;100097.52;;;13.10;43.90
74881;BME280;63427;49.654;6.596;2022-10-31T04:02:23;100095.18;;;13.05;44.29
74881;BME280;63427;49.654;6.596;2022-10-31T04:04:46;100099.10;;;13.34;43.94
74881;BME280;63427;49.654;6.596;2022-10-31T04:07:12;100101.92;;;13.03;44.26
74881;BME280;63427;49.654;6.596;2022-10-31T04:09:38;100103.84;;;12.98;43.89
74881;BME280;63427;49.654;6.596;2022-10-31T04:12:07;100106.51;;;13.03;43.71
74881;BME280;63427;49.654;6.596;2022-10-31T04:14:30;100110.07;;;12.87;44.40
74881;BME280;63427;49.654;6.596;2022-10-31T04:16:53;100110.33;;;12.84;44.49
74881;BME280;63427;49.654;6.596;2022-10-31T04:19:19;100108.89;;;12.76;44.40
74881;BME280;63427;49.654;6.596;2022-10-31T04:21:44;100111.73;;;12.69;44.43
74881;BME280;63427;49.654;6.596;2022-10-31T04:24:10;100108.06;;;12.64;44.32
74881;BME280;63427;49.654;6.596;2022-10-31T04:26:35;100112.26;;;12.71;44.18
74881;BME280;63427;49.654;6.596;2022-10-31T04:29:01;100107.36;;;12.70;44.30
74881;BME280;63427;49.654;6.596;2022-10-31T04:31:26;100106.92;;;12.63;44.75
74881;BME280;63427;49.654;6.596;2022-10-31T04:33:52;100106.58;;;12.66;44.75
74881;BME280;63427;49.654;6.596;2022-10-31T04:36:17;100105.31;;;12.61;44.71
74881;BME280;63427;49.654;6.596;2022-10-31T04:38:43;100104.89;;;12.62;44.53
74881;BME280;63427;49.654;6.596;2022-10-31T04:41:08;100104.46;;;12.61;44.84
74881;BME280;63427;49.654;6.596;2022-10-31T04:43:34;100099.82;;;12.65;44.56
74881;BME280;63427;49.654;6.596;2022-10-31T04:45:59;100099.66;;;13.00;44.25
74881;BME280;63427;49.654;6.596;2022-10-31T04:48:25;100102.11;;;12.56;44.20
74881;BME280;63427;49.654;6.596;2022-10-31T04:50:50;100102.49;;;12.61;44.37
74881;BME280;63427;49.654;6.596;2022-10-31T04:53:15;100105.13;;;12.57;44.97
74881;BME280;63427;49.654;6.596;2022-10-31T04:55:41;100104.07;;;12.57;44.69
74881;BME280;63427;49.654;6.596;2022-10-31T04:58:07;100104.73;;;12.53;45.24
74881;BME280;63427;49.654;6.596;2022-10-31T05:00:32;100102.51;;;12.61;44.89
74881;BME280;63427;49.654;6.596;2022-10-31T05:02:58;100101.70;;;12.68;44.80
74881;BME280;63427;49.654;6.596;2022-10-31T05:05:25;100099.58;;;12.72;45.10
74881;BME280;63427;49.654;6.596;2022-10-31T05:07:49;100096.09;;;12.76;44.75
74881;BME280;63427;49.654;6.596;2022-10-31T05:10:17;100098.37;;;13.14;45.06
74881;BME280;63427;49.654;6.596;2022-10-31T05:12:45;100094.27;;;12.47;45.35
74881;BME280;63427;49.654;6.596;2022-10-31T05:15:06;100088.57;;;12.74;45.37
74881;BME280;63427;49.654;6.596;2022-10-31T05:17:31;100085.33;;;12.67;45.39
74881;BME280;63427;49.654;6.596;2022-10-31T05:19:56;100082.41;;;12.70;45.35
74881;BME280;63427;49.654;6.596;2022-10-31T05:22:22;100079.19;;;12.86;44.79
74881;BME280;63427;49.654;6.596;2022-10-31T05:24:48;100074.35;;;12.85;44.89
74881;BME280;63427;49.654;6.596;2022-10-31T05:27:13;100068.02;;;12.83;45.46
74881;BME280;63427;49.654;6.596;2022-10-31T05:29:38;100067.24;;;12.91;45.43
74881;BME280;63427;49.654;6.596;2022-10-31T05:32:04;100066.63;;;12.90;45.24
74881;BME280;63427;49.654;6.596;2022-10-31T05:34:30;100062.32;;;12.81;45.31
74881;BME280;63427;49.654;6.596;2022-10-31T05:36:55;100057.20;;;12.78;45.79
74881;BME280;63427;49.654;6.596;2022-10-31T05:39:21;100053.93;;;12.85;45.54
74881;BME280;63427;49.654;6.596;2022-10-31T05:41:46;100051.04;;;12.99;45.32
74881;BME280;63427;49.654;6.596;2022-10-31T05:44:12;100051.38;;;13.02;45.08
74881;BME280;63427;49.654;6.596;2022-10-31T05:46:38;100048.72;;;13.00;44.64
74881;BME280;63427;49.654;6.596;2022-10-31T05:49:02;100049.63;;;13.06;45.14
74881;BME280;63427;49.654;6.596;2022-10-31T05:51:28;100051.94;;;13.03;45.30
74881;BME280;63427;49.654;6.596;2022-10-31T05:53:54;100048.77;;;13.14;44.91
74881;BME280;63427;49.654;6.596;2022-10-31T05:56:19;100047.70;;;13.08;44.93
74881;BME280;63427;49.654;6.596;2022-10-31T05:58:44;100050.07;;;13.06;45.03
74881;BME280;63427;49.654;6.596;2022-10-31T06:01:10;100050.08;;;13.08;45.03
74881;BME280;63427;49.654;6.596;2022-10-31T06:03:35;100052.34;;;12.90;45.45
74881;BME280;63427;49.654;6.596;2022-10-31T06:06:00;100046.96;;;13.07;45.10
74881;BME280;63427;49.654;6.596;2022-10-31T06:08:25;100046.46;;;13.01;45.00
74881;BME280;63427;49.654;6.596;2022-10-31T06:10:51;100050.88;;;13.03;44.91
74881;BME280;63427;49.654;6.596;2022-10-31T06:13:16;100055.67;;;13.12;44.54
74881;BME280;63427;49.654;6.596;2022-10-31T06:15:42;100052.37;;;13.14;44.85
74881;BME280;63427;49.654;6.596;2022-10-31T06:18:08;100052.88;;;12.91;44.96
74881;BME280;63427;49.654;6.596;2022-10-31T06:20:33;100046.96;;;12.98;44.58
74881;BME280;63427;49.654;6.596;2022-10-31T06:22:58;100048.99;;;13.27;44.78
74881;BME280;63427;49.654;6.596;2022-10-31T06:25:23;100047.89;;;13.24;44.58
74881;BME280;63427;49.654;6.596;2022-10-31T06:27:48;100049.11;;;13.24;44.30
74881;BME280;63427;49.654;6.596;2022-10-31T06:30:14;100051.55;;;13.20;44.70
74881;BME280;63427;49.654;6.596;2022-10-31T06:32:39;100049.92;;;13.27;44.44
74881;BME280;63427;49.654;6.596;2022-10-31T06:35:05;100047.38;;;13.24;44.47
74881;BME280;63427;49.654;6.596;2022-10-31T06:37:30;100049.33;;;13.28;44.68
74881;BME280;63427;49.654;6.596;2022-10-31T06:39:55;100047.58;;;13.16;44.72
74881;BME280;63427;49.654;6.596;2022-10-31T06:42:21;100048.93;;;13.11;44.70
74881;BME280;63427;49.654;6.596;2022-10-31T06:44:46;100054.90;;;13.09;44.91
74881;BME280;63427;49.654;6.596;2022-10-31T06:47:12;100061.58;;;13.07;44.97
74881;BME280;63427;49.654;6.596;2022-10-31T06:49:37;100061.15;;;13.05;45.11
74881;BME280;63427;49.654;6.596;2022-10-31T06:52:03;100063.14;;;13.10;44.93
74881;BME280;63427;49.654;6.596;2022-10-31T06:54:29;100063.77;;;13.09;45.20
74881;BME280;63427;49.654;6.596;2022-10-31T06:56:54;100064.80;;;12.91;45.17
74881;BME280;63427;49.654;6.596;2022-10-31T06:59:20;100059.21;;;13.14;45.35
74881;BME280;63427;49.654;6.596;2022-10-31T07:01:45;100057.26;;;13.27;44.62
74881;BME280;63427;49.654;6.596;2022-10-31T07:04:10;100057.20;;;13.33;44.89
74881;BME280;63427;49.654;6.596;2022-10-31T07:06:36;100058.48;;;13.05;44.91
74881;BME280;63427;49.654;6.596;2022-10-31T07:09:02;100058.88;;;13.15;45.04
74881;BME280;63427;49.654;6.596;2022-10-31T07:11:27;100061.37;;;13.40;44.88
74881;BME280;63427;49.654;6.596;2022-10-31T07:13:53;100062.48;;;13.57;44.13
74881;BME280;63427;49.654;6.596;2022-10-31T07:16:18;100066.81;;;13.09;44.53
74881;BME280;63427;49.654;6.596;2022-10-31T07:18:44;100071.25;;;13.40;43.77
74881;BME280;63427;49.654;6.596;2022-10-31T07:21:09;100075.27;;;13.46;43.63
74881;BME280;63427;49.654;6.596;2022-10-31T07:23:35;100075.88;;;13.47;44.05
74881;BME280;63427;49.654;6.596;2022-10-31T07:26:00;100077.33;;;13.91;43.85
74881;BME280;63427;49.654;6.596;2022-10-31T07:28:26;100074.39;;;13.92;44.45
74881;BME280;63427;49.654;6.596;2022-10-31T07:30:51;100077.08;;;13.74;44.92
74881;BME280;63427;49.654;6.596;2022-10-31T07:33:16;100078.73;;;13.89;43.85
74881;BME280;63427;49.654;6.596;2022-10-31T07:35:41;100078.72;;;13.92;44.19
74881;BME280;63427;49.654;6.596;2022-10-31T07:38:08;100075.42;;;13.79;44.93
74881;BME280;63427;49.654;6.596;2022-10-31T07:40:33;100075.45;;;13.77;44.64
74881;BME280;63427;49.654;6.596;2022-10-31T07:42:59;100075.57;;;13.76;44.78
74881;BME280;63427;49.654;6.596;2022-10-31T07:45:24;100076.54;;;13.88;44.71
74881;BME280;63427;49.654;6.596;2022-10-31T07:47:51;100077.54;;;14.01;44.27
74881;BME280;63427;49.654;6.596;2022-10-31T07:50:17;100074.12;;;14.09;44.27
74881;BME280;63427;49.654;6.596;2022-10-31T07:52:40;100073.25;;;14.28;44.15
74881;BME280;63427;49.654;6.596;2022-10-31T07:55:06;100067.83;;;14.13;44.60
74881;BME280;63427;49.654;6.596;2022-10-31T07:57:31;100068.49;;;14.12;43.96
74881;BME280;63427;49.654;6.596;2022-10-31T07:59:56;100065.64;;;14.17;44.18
74881;BME280;63427;49.654;6.596;2022-10-31T08:02:21;100066.11;;;14.48;44.18
74881;BME280;63427;49.654;6.596;2022-10-31T08:04:46;100062.99;;;14.57;43.82
74881;BME280;63427;49.654;6.596;2022-10-31T08:07:12;100063.65;;;14.29;43.43
74881;BME280;63427;49.654;6.596;2022-10-31T08:09:37;100065.57;;;14.53;42.97
74881;BME280;63427;49.654;6.596;2022-10-31T08:12:04;100063.80;;;14.71;43.37
74881;BME280;63427;49.654;6.596;2022-10-31T08:14:29;100059.10;;;14.85;43.82
74881;BME280;63427;49.654;6.596;2022-10-31T08:16:54;100055.79;;;14.72;43.75
74881;BME280;63427;49.654;6.596;2022-10-31T08:19:20;100058.34;;;15.09;43.08
74881;BME280;63427;49.654;6.596;2022-10-31T08:21:45;100060.16;;;14.91;42.68
74881;BME280;63427;49.654;6.596;2022-10-31T08:24:11;100057.85;;;14.95;42.87
74881;BME280;63427;49.654;6.596;2022-10-31T08:26:36;100053.61;;;15.11;42.40
74881;BME280;63427;49.654;6.596;2022-10-31T08:29:02;100052.48;;;15.15;42.33
74881;BME280;63427;49.654;6.596;2022-10-31T08:31:27;100044.87;;;14.94;42.56
74881;BME280;63427;49.654;6.596;2022-10-31T08:33:52;100041.84;;;15.31;42.64
74881;BME280;63427;49.654;6.596;2022-10-31T08:36:17;100038.33;;;15.27;42.43
74881;BME280;63427;49.654;6.596;2022-10-31T08:38:43;100037.18;;;15.14;42.35
74881;BME280;63427;49.654;6.596;2022-10-31T08:41:08;100035.37;;;15.62;42.45
74881;BME280;63427;49.654;6.596;2022-10-31T08:43:33;100034.80;;;15.34;42.47
74881;BME280;63427;49.654;6.596;2022-10-31T08:45:59;100032.53;;;15.36;42.07
74881;BME280;63427;49.654;6.596;2022-10-31T08:48:25;100026.26;;;15.49;42.04
74881;BME280;63427;49.654;6.596;2022-10-31T08:50:50;100024.94;;;15.49;42.67
74881;BME280;63427;49.654;6.596;2022-10-31T08:53:17;100019.16;;;15.54;42.35
74881;BME280;63427;49.654;6.596;2022-10-31T08:55:42;100015.59;;;15.70;42.16
74881;BME280;63427;49.654;6.596;2022-10-31T08:58:09;100010.46;;;15.50;42.21
74881;BME280;63427;49.654;6.596;2022-10-31T09:00:32;100014.06;;;15.68;41.55
74881;BME280;63427;49.654;6.596;2022-10-31T09:02:58;100011.79;;;15.72;41.88
74881;BME280;63427;49.654;6.596;2022-10-31T09:05:22;100011.33;;;15.77;41.87
74881;BME280;63427;49.654;6.596;2022-10-31T09:07:47;100010.10;;;15.66;42.02
74881;BME280;63427;49.654;6.596;2022-10-31T09:10:13;100014.55;;;15.89;42.47
74881;BME280;63427;49.654;6.596;2022-10-31T09:12:38;100015.10;;;15.85;41.87
74881;BME280;63427;49.654;6.596;2022-10-31T09:15:04;100014.93;;;15.96;41.73
74881;BME280;63427;49.654;6.596;2022-10-31T09:17:29;100015.87;;;15.84;41.74
74881;BME280;63427;49.654;6.596;2022-10-31T09:19:54;100015.45;;;15.95;41.66
74881;BME280;63427;49.654;6.596;2022-10-31T09:22:20;100007.75;;;15.96;41.93
74881;BME280;63427;49.654;6.596;2022-10-31T09:24:45;100000.21;;;16.14;41.68
74881;BME280;63427;49.654;6.596;2022-10-31T09:27:10;99998.57;;;15.98;41.77
74881;BME280;63427;49.654;6.596;2022-10-31T09:29:35;100000.82;;;16.38;41.79
74881;BME280;63427;49.654;6.596;2022-10-31T09:32:01;100002.96;;;16.53;41.61
74881;BME280;63427;49.654;6.596;2022-10-31T09:34:26;100001.54;;;16.33;41.71
74881;BME280;63427;49.654;6.596;2022-10-31T09:36:53;99996.80;;;16.48;41.48
74881;BME280;63427;49.654;6.596;2022-10-31T09:39:17;99993.62;;;16.43;41.11
74881;BME280;63427;49.654;6.596;2022-10-31T09:41:56;99991.70;;;16.69;40.68
74881;BME280;63427;49.654;6.596;2022-10-31T09:44:13;99991.92;;;16.44;40.68
74881;BME280;63427;49.654;6.596;2022-10-31T09:46:40;99993.90;;;16.66;40.61
74881;BME280;63427;49.654;6.596;2022-10-31T09:51:29;99993.51;;;16.75;40.59
74881;BME280;63427;49.654;6.596;2022-10-31T09:53:53;99985.62;;;16.97;40.25
74881;BME280;63427;49.654;6.596;2022-10-31T09:56:17;99984.32;;;16.96;40.36
74881;BME280;63427;49.654;6.596;2022-10-31T09:58:43;99979.47;;;17.17;40.60
74881;BME280;63427;49.654;6.596;2022-10-31T10:01:09;99980.20;;;17.18;40.58
74881;BME280;63427;49.654;6.596;2022-10-31T10:03:35;99979.59;;;17.45;40.07
74881;BME280;63427;49.654;6.596;2022-10-31T10:06:04;99971.68;;;17.19;40.20
74881;BME280;63427;49.654;6.596;2022-10-31T10:08:25;99970.99;;;17.75;39.83
74881;BME280;63427;49.654;6.596;2022-10-31T10:10:51;99964.39;;;17.24;39.83
74881;BME280;63427;49.654;6.596;2022-10-31T10:13:26;99971.14;;;17.80;39.86
74881;BME280;63427;49.654;6.596;2022-10-31T10:15:52;99972.84;;;17.83;39.59
74881;BME280;63427;49.654;6.596;2022-10-31T10:18:12;99974.00;;;17.82;39.70
74881;BME280;63427;49.654;6.596;2022-10-31T10:20:34;99966.87;;;17.90;39.46
74881;BME280;63427;49.654;6.596;2022-10-31T10:23:01;99968.71;;;17.55;39.38
74881;BME280;63427;49.654;6.596;2022-10-31T10:25:25;99970.39;;;17.78;39.61
74881;BME280;63427;49.654;6.596;2022-10-31T10:28:00;99969.33;;;17.68;39.14
74881;BME280;63427;49.654;6.596;2022-10-31T10:30:15;99966.22;;;18.04;39.33
74881;BME280;63427;49.654;6.596;2022-10-31T10:32:42;99967.17;;;17.71;39.24
74881;BME280;63427;49.654;6.596;2022-10-31T10:35:07;99963.73;;;18.09;38.84
74881;BME280;63427;49.654;6.596;2022-10-31T10:37:30;99960.31;;;18.08;39.23
74881;BME280;63427;49.654;6.596;2022-10-31T10:39:56;99955.01;;;18.18;38.61
74881;BME280;63427;49.654;6.596;2022-10-31T10:42:17;99951.69;;;17.94;38.89
74881;BME280;63427;49.654;6.596;2022-10-31T10:44:46;99950.42;;;18.28;39.00
74881;BME280;63427;49.654;6.596;2022-10-31T10:47:08;99959.22;;;18.51;38.43
74881;BME280;63427;49.654;6.596;2022-10-31T10:49:38;99961.68;;;18.63;38.62
74881;BME280;63427;49.654;6.596;2022-10-31T10:52:01;99958.44;;;18.53;38.43
74881;BME280;63427;49.654;6.596;2022-10-31T10:54:37;99953.30;;;18.73;38.32
74881;BME280;63427;49.654;6.596;2022-10-31T10:56:58;99945.50;;;18.76;38.44
74881;BME280;63427;49.654;6.596;2022-10-31T10:59:19;99945.74;;;18.92;38.13
74881;BME280;63427;49.654;6.596;2022-10-31T11:01:41;99951.17;;;19.15;37.30
74881;BME280;63427;49.654;6.596;2022-10-31T11:04:21;99946.63;;;19.20;37.30
74881;BME280;63427;49.654;6.596;2022-10-31T11:06:32;99937.60;;;19.47;36.46
74881;BME280;63427;49.654;6.596;2022-10-31T11:11:26;99923.64;;;19.73;37.41
74881;BME280;63427;49.654;6.596;2022-10-31T11:13:49;99910.48;;;20.24;35.94
74881;BME280;63427;49.654;6.596;2022-10-31T11:16:15;99915.18;;;20.25;35.99
74881;BME280;63427;49.654;6.596;2022-10-31T11:18:42;99913.37;;;20.60;35.01
74881;BME280;63427;49.654;6.596;2022-10-31T11:21:05;99908.84;;;20.63;34.54
74881;BME280;63427;49.654;6.596;2022-10-31T11:23:31;99902.94;;;20.38;35.87
74881;BME280;63427;49.654;6.596;2022-10-31T11:25:57;99894.14;;;21.09;34.67
74881;BME280;63427;49.654;6.596;2022-10-31T11:28:21;99883.79;;;20.77;34.95
74881;BME280;63427;49.654;6.596;2022-10-31T11:30:48;99879.00;;;21.20;35.31
74881;BME280;63427;49.654;6.596;2022-10-31T11:33:17;99880.80;;;20.85;34.95
74881;BME280;63427;49.654;6.596;2022-10-31T11:35:39;99877.30;;;21.08;34.36
74881;BME280;63427;49.654;6.596;2022-10-31T11:38:04;99872.32;;;21.18;34.02
74881;BME280;63427;49.654;6.596;2022-10-31T11:40:29;99873.97;;;21.32;33.86
74881;BME280;63427;49.654;6.596;2022-10-31T11:42:56;99873.33;;;21.34;33.90
74881;BME280;63427;49.654;6.596;2022-10-31T11:45:28;99870.21;;;21.28;33.90
74881;BME280;63427;49.654;6.596;2022-10-31T11:47:49;99865.60;;;21.29;33.88
74881;BME280;63427;49.654;6.596;2022-10-31T11:50:18;99851.96;;;21.25;33.64
74881;BME280;63427;49.654;6.596;2022-10-31T11:52:37;99845.47;;;21.27;34.37
74881;BME280;63427;49.654;6.596;2022-10-31T11:57:28;99837.28;;;21.49;33.31
74881;BME280;63427;49.654;6.596;2022-10-31T11:59:53;99836.52;;;21.52;34.12
74881;BME280;63427;49.654;6.596;2022-10-31T12:02:19;99839.35;;;21.67;33.52
74881;BME280;63427;49.654;6.596;2022-10-31T12:04:47;99834.73;;;21.67;34.09
74881;BME280;63427;49.654;6.596;2022-10-31T12:07:08;99834.05;;;21.85;34.27
74881;BME280;63427;49.654;6.596;2022-10-31T12:09:35;99829.89;;;21.76;33.35
74881;BME280;63427;49.654;6.596;2022-10-31T12:12:22;99828.92;;;21.52;33.60
74881;BME280;63427;49.654;6.596;2022-10-31T12:14:30;99825.25;;;21.82;33.96
74881;BME280;63427;49.654;6.596;2022-10-31T12:16:54;99820.43;;;22.11;33.79
74881;BME280;63427;49.654;6.596;2022-10-31T12:19:21;99814.04;;;21.89;33.13
74881;BME280;63427;49.654;6.596;2022-10-31T12:21:52;99809.17;;;22.12;33.42
74881;BME280;63427;49.654;6.596;2022-10-31T12:24:14;99800.14;;;21.98;32.99
74881;BME280;63427;49.654;6.596;2022-10-31T12:26:35;99791.68;;;21.60;33.21
74881;BME280;63427;49.654;6.596;2022-10-31T12:29:11;99790.90;;;21.94;33.07
74881;BME280;63427;49.654;6.596;2022-10-31T12:31:32;99783.89;;;22.07;32.64
74881;BME280;63427;49.654;6.596;2022-10-31T12:33:54;99784.33;;;22.12;33.42
74881;BME280;63427;49.654;6.596;2022-10-31T12:36:26;99776.68;;;21.81;33.20
74881;BME280;63427;49.654;6.596;2022-10-31T12:38:53;99771.85;;;21.57;33.80
74881;BME280;63427;49.654;6.596;2022-10-31T12:41:16;99768.82;;;22.15;33.94
74881;BME280;63427;49.654;6.596;2022-10-31T12:43:36;99763.30;;;21.70;33.37
74881;BME280;63427;49.654;6.596;2022-10-31T12:45:55;99748.17;;;21.91;33.33
74881;BME280;63427;49.654;6.596;2022-10-31T12:48:29;99747.38;;;21.96;33.65
74881;BME280;63427;49.654;6.596;2022-10-31T12:50:54;99743.88;;;21.79;33.35
74881;BME280;63427;49.654;6.596;2022-10-31T12:53:25;99741.28;;;21.95;33.45